sensor_id;sensor_type;location;lat;lon;timestamp;pressure;altitude;pressure_sealevel;temperature;humidity
31873;BME280;22407;42.820;23.374;2022-07-03T00:01:46;96156.12;;;17.66;92.86
31873;BME280;22407;42.820;23.374;2022-07-03T00:04:15;96164.00;;;17.59;93.21
31873;BME280;22407;42.820;23.374;2022-07-03T00:06:46;96159.98;;;17.59;93.99
31873;BME280;22407;42.820;23.374;2022-07-03T00:09:15;96163.47;;;17.43;94.98
31873;BME280;22407;42.820;23.374;2022-07-03T00:11:44;96165.50;;;17.58;95.40
31873;BME280;22407;42.820;23.374;2022-07-03T00:14:14;96163.84;;;17.57;95.17
31873;BME280;22407;42.820;23.374;2022-07-03T00:16:43;96162.31;;;17.71;94.28
31873;BME280;22407;42.820;23.374;2022-07-03T00:19:12;96154.45;;;17.57;94.53
31873;BME280;22407;42.820;23.374;2022-07-03T00:22:01;96152.61;;;17.82;91.86
31873;BME280;22407;42.820;23.374;2022-07-03T00:24:28;96152.92;;;17.67;91.39
31873;BME280;22407;42.820;23.374;2022-07-03T00:26:58;96155.41;;;17.39;93.39
31873;BME280;22407;42.820;23.374;2022-07-03T00:29:34;96159.25;;;17.25;94.67
31873;BME280;22407;42.820;23.374;2022-07-03T00:32:02;96155.36;;;17.15;95.80
31873;BME280;22407;42.820;23.374;2022-07-03T00:34:32;96152.50;;;17.08;96.11
31873;BME280;22407;42.820;23.374;2022-07-03T00:37:02;96150.98;;;17.01;96.16
31873;BME280;22407;42.820;23.374;2022-07-03T00:39:33;96155.84;;;17.02;96.01
31873;BME280;22407;42.820;23.374;2022-07-03T00:42:05;96148.83;;;17.09;96.29
31873;BME280;22407;42.820;23.374;2022-07-03T00:47:20;96150.89;;;17.28;94.15
31873;BME280;22407;42.820;23.374;2022-07-03T00:49:56;96151.38;;;17.35;93.34
31873;BME280;22407;42.820;23.374;2022-07-03T00:52:22;96146.70;;;17.46;92.36
31873;BME280;22407;42.820;23.374;2022-07-03T00:54:53;96141.95;;;17.15;94.56
31873;BME280;22407;42.820;23.374;2022-07-03T00:57:24;96134.39;;;17.06;95.47
31873;BME280;22407;42.820;23.374;2022-07-03T00:59:54;96128.39;;;17.16;95.04
31873;BME280;22407;42.820;23.374;2022-07-03T01:02:34;96127.50;;;16.95;95.82
31873;BME280;22407;42.820;23.374;2022-07-03T01:17:02;96119.11;;;16.86;98.75
31873;BME280;22407;42.820;23.374;2022-07-03T01:19:40;96121.59;;;16.84;98.45
31873;BME280;22407;42.820;23.374;2022-07-03T01:25:16;96120.82;;;17.04;95.89
31873;BME280;22407;42.820;23.374;2022-07-03T01:27:56;96125.91;;;16.76;96.40
31873;BME280;22407;42.820;23.374;2022-07-03T01:30:30;96123.69;;;16.64;97.76
31873;BME280;22407;42.820;23.374;2022-07-03T01:33:15;96123.06;;;16.74;96.85
31873;BME280;22407;42.820;23.374;2022-07-03T01:35:41;96123.22;;;16.72;96.68
31873;BME280;22407;42.820;23.374;2022-07-03T01:38:12;96125.17;;;16.96;94.77
31873;BME280;22407;42.820;23.374;2022-07-03T01:40:42;96118.11;;;16.91;95.04
31873;BME280;22407;42.820;23.374;2022-07-03T01:43:12;96109.22;;;16.87;95.04
31873;BME280;22407;42.820;23.374;2022-07-03T01:45:47;96118.78;;;16.93;94.53
31873;BME280;22407;42.820;23.374;2022-07-03T01:48:16;96113.08;;;16.84;94.91
31873;BME280;22407;42.820;23.374;2022-07-03T01:50:47;96112.67;;;16.79;95.33
31873;BME280;22407;42.820;23.374;2022-07-03T01:53:18;96116.66;;;16.67;96.43
31873;BME280;22407;42.820;23.374;2022-07-03T01:55:48;96118.47;;;16.58;96.95
31873;BME280;22407;42.820;23.374;2022-07-03T01:58:19;96120.63;;;16.50;98.14
31873;BME280;22407;42.820;23.374;2022-07-03T02:00:54;96128.14;;;16.47;98.53
31873;BME280;22407;42.820;23.374;2022-07-03T02:03:24;96131.42;;;16.32;99.46
31873;BME280;22407;42.820;23.374;2022-07-03T02:06:04;96123.59;;;16.43;99.64
31873;BME280;22407;42.820;23.374;2022-07-03T02:11:18;96120.66;;;16.62;97.53
31873;BME280;22407;42.820;23.374;2022-07-03T02:14:14;96117.69;;;16.70;95.98
31873;BME280;22407;42.820;23.374;2022-07-03T02:16:56;96109.14;;;16.70;95.87
31873;BME280;22407;42.820;23.374;2022-07-03T02:19:38;96121.14;;;16.58;95.55
31873;BME280;22407;42.820;23.374;2022-07-03T02:21:56;96119.69;;;16.33;97.57
31873;BME280;22407;42.820;23.374;2022-07-03T02:24:27;96116.80;;;16.23;98.51
31873;BME280;22407;42.820;23.374;2022-07-03T02:29:36;96120.26;;;16.45;98.31
31873;BME280;22407;42.820;23.374;2022-07-03T02:32:10;96118.47;;;16.58;97.25
31873;BME280;22407;42.820;23.374;2022-07-03T02:34:38;96129.87;;;16.64;95.75
31873;BME280;22407;42.820;23.374;2022-07-03T02:37:17;96121.69;;;16.66;94.51
31873;BME280;22407;42.820;23.374;2022-07-03T02:40:43;96128.65;;;16.46;95.27
31873;BME280;22407;42.820;23.374;2022-07-03T02:45:14;96138.48;;;16.41;96.11
31873;BME280;22407;42.820;23.374;2022-07-03T02:48:04;96134.91;;;16.29;97.08
31873;BME280;22407;42.820;23.374;2022-07-03T02:50:34;96133.52;;;16.20;98.26
31873;BME280;22407;42.820;23.374;2022-07-03T02:53:20;96138.55;;;16.19;97.95
31873;BME280;22407;42.820;23.374;2022-07-03T02:55:46;96132.08;;;16.30;97.58
31873;BME280;22407;42.820;23.374;2022-07-03T02:58:26;96134.27;;;16.35;96.09
31873;BME280;22407;42.820;23.374;2022-07-03T03:01:08;96136.48;;;16.44;95.09
31873;BME280;22407;42.820;23.374;2022-07-03T03:03:38;96144.02;;;16.40;94.72
31873;BME280;22407;42.820;23.374;2022-07-03T03:06:14;96144.05;;;16.18;96.67
31873;BME280;22407;42.820;23.374;2022-07-03T03:08:49;96146.38;;;16.13;97.29
31873;BME280;22407;42.820;23.374;2022-07-03T03:14:11;96143.77;;;16.29;96.65
31873;BME280;22407;42.820;23.374;2022-07-03T03:16:45;96147.05;;;16.45;94.59
31873;BME280;22407;42.820;23.374;2022-07-03T03:19:11;96148.05;;;16.40;95.03
31873;BME280;22407;42.820;23.374;2022-07-03T03:24:09;96157.67;;;16.29;96.62
31873;BME280;22407;42.820;23.374;2022-07-03T03:26:37;96153.33;;;16.28;97.48
31873;BME280;22407;42.820;23.374;2022-07-03T03:29:06;96157.91;;;16.44;96.84
31873;BME280;22407;42.820;23.374;2022-07-03T03:31:34;96159.59;;;16.40;96.90
31873;BME280;22407;42.820;23.374;2022-07-03T03:34:04;96167.02;;;16.51;96.30
31873;BME280;22407;42.820;23.374;2022-07-03T03:36:33;96158.17;;;16.62;95.02
31873;BME280;22407;42.820;23.374;2022-07-03T03:39:02;96156.95;;;16.49;95.37
31873;BME280;22407;42.820;23.374;2022-07-03T03:41:33;96161.02;;;16.57;95.32
31873;BME280;22407;42.820;23.374;2022-07-03T03:44:02;96157.52;;;16.65;95.24
31873;BME280;22407;42.820;23.374;2022-07-03T03:46:31;96154.52;;;16.68;95.41
31873;BME280;22407;42.820;23.374;2022-07-03T03:49:00;96154.72;;;16.74;94.20
31873;BME280;22407;42.820;23.374;2022-07-03T03:51:29;96156.42;;;16.79;94.21
31873;BME280;22407;42.820;23.374;2022-07-03T03:53:58;96161.09;;;16.73;94.56
31873;BME280;22407;42.820;23.374;2022-07-03T03:56:26;96163.92;;;16.72;95.40
31873;BME280;22407;42.820;23.374;2022-07-03T03:58:55;96163.28;;;16.78;95.44
31873;BME280;22407;42.820;23.374;2022-07-03T04:01:24;96160.98;;;16.87;95.11
31873;BME280;22407;42.820;23.374;2022-07-03T04:03:53;96158.35;;;16.99;94.48
31873;BME280;22407;42.820;23.374;2022-07-03T04:06:22;96163.73;;;17.08;93.46
31873;BME280;22407;42.820;23.374;2022-07-03T04:08:51;96158.87;;;17.03;93.82
31873;BME280;22407;42.820;23.374;2022-07-03T04:11:20;96152.68;;;17.03;93.87
31873;BME280;22407;42.820;23.374;2022-07-03T04:13:48;96152.00;;;17.13;93.57
31873;BME280;22407;42.820;23.374;2022-07-03T04:16:18;96156.73;;;17.27;92.96
31873;BME280;22407;42.820;23.374;2022-07-03T04:18:47;96153.58;;;17.32;92.65
31873;BME280;22407;42.820;23.374;2022-07-03T04:21:15;96147.87;;;17.35;93.27
31873;BME280;22407;42.820;23.374;2022-07-03T04:23:44;96150.72;;;17.37;94.06
31873;BME280;22407;42.820;23.374;2022-07-03T04:26:13;96148.39;;;17.47;93.94
31873;BME280;22407;42.820;23.374;2022-07-03T04:28:43;96155.95;;;17.59;93.77
31873;BME280;22407;42.820;23.374;2022-07-03T04:31:12;96151.26;;;17.70;93.65
31873;BME280;22407;42.820;23.374;2022-07-03T04:33:41;96156.79;;;17.80;93.60
31873;BME280;22407;42.820;23.374;2022-07-03T04:36:09;96152.95;;;17.95;93.21
31873;BME280;22407;42.820;23.374;2022-07-03T04:38:38;96152.79;;;18.01;93.09
31873;BME280;22407;42.820;23.374;2022-07-03T04:41:06;96153.09;;;18.14;91.40
31873;BME280;22407;42.820;23.374;2022-07-03T04:43:35;96155.59;;;18.28;90.73
31873;BME280;22407;42.820;23.374;2022-07-03T04:46:03;96157.56;;;18.38;90.25
31873;BME280;22407;42.820;23.374;2022-07-03T04:48:32;96162.58;;;18.54;89.92
31873;BME280;22407;42.820;23.374;2022-07-03T04:51:00;96164.88;;;18.69;89.84
31873;BME280;22407;42.820;23.374;2022-07-03T04:53:29;96163.20;;;18.80;89.88
31873;BME280;22407;42.820;23.374;2022-07-03T04:55:58;96159.13;;;18.89;89.37
31873;BME280;22407;42.820;23.374;2022-07-03T04:58:27;96161.55;;;19.07;87.36
31873;BME280;22407;42.820;23.374;2022-07-03T05:00:56;96156.47;;;19.16;87.26
31873;BME280;22407;42.820;23.374;2022-07-03T05:03:25;96152.85;;;19.28;86.19
31873;BME280;22407;42.820;23.374;2022-07-03T05:05:55;96160.70;;;19.37;85.17
31873;BME280;22407;42.820;23.374;2022-07-03T05:08:24;96154.22;;;19.51;85.21
31873;BME280;22407;42.820;23.374;2022-07-03T05:10:52;96153.70;;;19.78;84.39
31873;BME280;22407;42.820;23.374;2022-07-03T05:13:21;96150.77;;;19.88;83.63
31873;BME280;22407;42.820;23.374;2022-07-03T05:15:50;96145.48;;;19.95;83.02
31873;BME280;22407;42.820;23.374;2022-07-03T05:18:19;96150.69;;;20.15;82.38
31873;BME280;22407;42.820;23.374;2022-07-03T05:20:48;96147.66;;;20.33;81.66
31873;BME280;22407;42.820;23.374;2022-07-03T05:23:17;96146.44;;;20.70;79.73
31873;BME280;22407;42.820;23.374;2022-07-03T05:25:46;96142.27;;;21.29;76.40
31873;BME280;22407;42.820;23.374;2022-07-03T05:28:14;96144.86;;;22.13;73.91
31873;BME280;22407;42.820;23.374;2022-07-03T05:30:43;96147.19;;;22.96;70.39
31873;BME280;22407;42.820;23.374;2022-07-03T05:33:12;96139.02;;;23.68;67.43
31873;BME280;22407;42.820;23.374;2022-07-03T05:35:41;96140.22;;;24.23;65.74
31873;BME280;22407;42.820;23.374;2022-07-03T05:38:10;96132.78;;;24.75;64.89
31873;BME280;22407;42.820;23.374;2022-07-03T05:40:39;96131.94;;;25.33;62.07
31873;BME280;22407;42.820;23.374;2022-07-03T05:43:08;96126.28;;;25.57;60.17
31873;BME280;22407;42.820;23.374;2022-07-03T05:45:37;96128.97;;;25.79;59.07
31873;BME280;22407;42.820;23.374;2022-07-03T05:48:06;96123.13;;;26.07;57.73
31873;BME280;22407;42.820;23.374;2022-07-03T05:50:34;96128.42;;;26.37;57.39
31873;BME280;22407;42.820;23.374;2022-07-03T05:53:03;96126.55;;;26.72;56.19
31873;BME280;22407;42.820;23.374;2022-07-03T05:55:33;96129.89;;;26.92;55.46
31873;BME280;22407;42.820;23.374;2022-07-03T05:58:01;96122.72;;;27.25;54.22
31873;BME280;22407;42.820;23.374;2022-07-03T06:00:30;96121.42;;;27.79;53.08
31873;BME280;22407;42.820;23.374;2022-07-03T06:02:59;96121.41;;;28.21;51.44
31873;BME280;22407;42.820;23.374;2022-07-03T06:05:29;96118.16;;;28.34;50.05
31873;BME280;22407;42.820;23.374;2022-07-03T06:08:00;96113.77;;;28.54;49.60
31873;BME280;22407;42.820;23.374;2022-07-03T06:10:29;96121.37;;;28.30;49.50
31873;BME280;22407;42.820;23.374;2022-07-03T06:12:58;96119.34;;;28.14;49.78
31873;BME280;22407;42.820;23.374;2022-07-03T06:15:27;96123.91;;;28.23;50.09
31873;BME280;22407;42.820;23.374;2022-07-03T06:17:56;96124.65;;;28.30;49.31
31873;BME280;22407;42.820;23.374;2022-07-03T06:20:25;96132.44;;;28.15;50.68
31873;BME280;22407;42.820;23.374;2022-07-03T06:22:54;96136.56;;;27.84;51.03
31873;BME280;22407;42.820;23.374;2022-07-03T06:25:22;96135.27;;;27.57;51.96
31873;BME280;22407;42.820;23.374;2022-07-03T06:27:51;96129.28;;;26.90;53.82
31873;BME280;22407;42.820;23.374;2022-07-03T06:30:20;96128.74;;;26.38;55.26
31873;BME280;22407;42.820;23.374;2022-07-03T06:32:49;96135.50;;;26.03;56.51
31873;BME280;22407;42.820;23.374;2022-07-03T06:35:18;96130.33;;;25.79;58.29
31873;BME280;22407;42.820;23.374;2022-07-03T06:37:47;96137.30;;;25.68;58.65
31873;BME280;22407;42.820;23.374;2022-07-03T06:40:16;96136.34;;;25.49;59.48
31873;BME280;22407;42.820;23.374;2022-07-03T06:42:44;96130.78;;;25.54;58.69
31873;BME280;22407;42.820;23.374;2022-07-03T06:45:13;96130.30;;;25.47;58.57
31873;BME280;22407;42.820;23.374;2022-07-03T06:47:42;96124.89;;;25.79;59.11
31873;BME280;22407;42.820;23.374;2022-07-03T06:50:11;96130.85;;;26.70;57.17
31873;BME280;22407;42.820;23.374;2022-07-03T06:52:40;96127.24;;;27.62;53.80
31873;BME280;22407;42.820;23.374;2022-07-03T06:55:09;96125.14;;;28.50;51.04
31873;BME280;22407;42.820;23.374;2022-07-03T06:57:38;96124.61;;;28.75;49.91
31873;BME280;22407;42.820;23.374;2022-07-03T07:00:07;96125.76;;;28.90;49.42
31873;BME280;22407;42.820;23.374;2022-07-03T07:02:36;96117.05;;;29.29;48.81
31873;BME280;22407;42.820;23.374;2022-07-03T07:05:05;96122.73;;;29.01;49.26
31873;BME280;22407;42.820;23.374;2022-07-03T07:07:34;96113.36;;;28.26;51.55
31873;BME280;22407;42.820;23.374;2022-07-03T07:10:03;96115.44;;;27.89;52.88
31873;BME280;22407;42.820;23.374;2022-07-03T07:12:32;96112.63;;;28.19;52.54
31873;BME280;22407;42.820;23.374;2022-07-03T07:15:01;96107.68;;;28.75;50.63
31873;BME280;22407;42.820;23.374;2022-07-03T07:17:30;96098.50;;;29.31;48.30
31873;BME280;22407;42.820;23.374;2022-07-03T07:19:59;96101.87;;;29.50;48.29
31873;BME280;22407;42.820;23.374;2022-07-03T07:22:28;96104.17;;;29.56;47.68
31873;BME280;22407;42.820;23.374;2022-07-03T07:24:57;96093.28;;;29.87;47.27
31873;BME280;22407;42.820;23.374;2022-07-03T07:27:25;96098.83;;;30.26;46.01
31873;BME280;22407;42.820;23.374;2022-07-03T07:29:54;96100.73;;;30.40;46.16
31873;BME280;22407;42.820;23.374;2022-07-03T07:32:23;96091.33;;;30.72;45.58
31873;BME280;22407;42.820;23.374;2022-07-03T07:34:52;96087.03;;;30.79;44.66
31873;BME280;22407;42.820;23.374;2022-07-03T07:37:21;96087.88;;;30.79;44.17
31873;BME280;22407;42.820;23.374;2022-07-03T07:39:50;96089.93;;;30.69;45.12
31873;BME280;22407;42.820;23.374;2022-07-03T07:42:18;96083.84;;;30.65;45.98
31873;BME280;22407;42.820;23.374;2022-07-03T07:44:47;96082.63;;;30.75;45.38
31873;BME280;22407;42.820;23.374;2022-07-03T07:47:16;96083.94;;;30.53;46.22
31873;BME280;22407;42.820;23.374;2022-07-03T07:49:45;96084.36;;;30.45;46.67
31873;BME280;22407;42.820;23.374;2022-07-03T07:52:14;96084.64;;;30.63;46.18
31873;BME280;22407;42.820;23.374;2022-07-03T07:54:43;96081.86;;;30.99;45.67
31873;BME280;22407;42.820;23.374;2022-07-03T07:57:15;96083.20;;;30.97;45.06
31873;BME280;22407;42.820;23.374;2022-07-03T07:59:43;96082.83;;;31.35;45.25
31873;BME280;22407;42.820;23.374;2022-07-03T08:02:12;96078.20;;;31.13;44.48
31873;BME280;22407;42.820;23.374;2022-07-03T08:04:59;96073.89;;;31.20;45.69
31873;BME280;22407;42.820;23.374;2022-07-03T08:07:46;96079.17;;;31.26;45.38
31873;BME280;22407;42.820;23.374;2022-07-03T08:10:15;96083.66;;;31.10;44.90
31873;BME280;22407;42.820;23.374;2022-07-03T08:12:44;96075.98;;;31.35;45.17
31873;BME280;22407;42.820;23.374;2022-07-03T08:15:12;96066.55;;;31.23;45.15
31873;BME280;22407;42.820;23.374;2022-07-03T08:17:41;96064.23;;;31.39;44.56
31873;BME280;22407;42.820;23.374;2022-07-03T08:20:10;96071.61;;;31.36;44.55
31873;BME280;22407;42.820;23.374;2022-07-03T08:22:39;96068.28;;;31.31;44.85
31873;BME280;22407;42.820;23.374;2022-07-03T08:25:08;96062.99;;;31.77;44.82
31873;BME280;22407;42.820;23.374;2022-07-03T08:27:37;96065.54;;;31.31;45.05
31873;BME280;22407;42.820;23.374;2022-07-03T08:30:07;96070.20;;;31.56;42.71
31873;BME280;22407;42.820;23.374;2022-07-03T08:32:36;96065.70;;;31.71;42.33
31873;BME280;22407;42.820;23.374;2022-07-03T08:35:06;96073.27;;;31.89;40.58
31873;BME280;22407;42.820;23.374;2022-07-03T08:37:35;96068.67;;;32.29;40.69
31873;BME280;22407;42.820;23.374;2022-07-03T08:40:04;96067.28;;;32.62;39.92
31873;BME280;22407;42.820;23.374;2022-07-03T08:42:46;96072.23;;;32.65;39.28
31873;BME280;22407;42.820;23.374;2022-07-03T08:45:07;96074.47;;;32.68;39.79
31873;BME280;22407;42.820;23.374;2022-07-03T08:47:39;96069.10;;;32.96;40.46
31873;BME280;22407;42.820;23.374;2022-07-03T08:50:09;96066.13;;;33.03;39.43
31873;BME280;22407;42.820;23.374;2022-07-03T08:52:40;96060.16;;;33.21;37.73
31873;BME280;22407;42.820;23.374;2022-07-03T08:55:10;96057.19;;;33.36;36.08
31873;BME280;22407;42.820;23.374;2022-07-03T08:57:42;96058.56;;;33.38;35.46
31873;BME280;22407;42.820;23.374;2022-07-03T09:00:13;96060.20;;;33.29;35.22
31873;BME280;22407;42.820;23.374;2022-07-03T09:02:45;96061.80;;;33.15;34.82
31873;BME280;22407;42.820;23.374;2022-07-03T09:05:15;96050.41;;;32.96;35.09
31873;BME280;22407;42.820;23.374;2022-07-03T09:07:45;96052.87;;;32.47;33.50
31873;BME280;22407;42.820;23.374;2022-07-03T09:10:16;96043.28;;;33.00;33.29
31873;BME280;22407;42.820;23.374;2022-07-03T09:12:47;96051.98;;;32.79;34.18
31873;BME280;22407;42.820;23.374;2022-07-03T09:15:17;96049.42;;;33.17;32.06
31873;BME280;22407;42.820;23.374;2022-07-03T09:18:03;96042.05;;;33.36;32.44
31873;BME280;22407;42.820;23.374;2022-07-03T09:20:35;96045.46;;;33.71;30.14
31873;BME280;22407;42.820;23.374;2022-07-03T09:23:13;96041.62;;;33.75;29.96
31873;BME280;22407;42.820;23.374;2022-07-03T09:25:58;96041.06;;;33.90;31.42
31873;BME280;22407;42.820;23.374;2022-07-03T09:28:48;96047.12;;;33.77;31.26
31873;BME280;22407;42.820;23.374;2022-07-03T09:31:27;96038.88;;;34.16;30.30
31873;BME280;22407;42.820;23.374;2022-07-03T09:36:38;96042.44;;;34.44;29.80
31873;BME280;22407;42.820;23.374;2022-07-03T09:39:51;96039.98;;;34.20;30.76
31873;BME280;22407;42.820;23.374;2022-07-03T09:42:01;96031.70;;;34.45;29.94
31873;BME280;22407;42.820;23.374;2022-07-03T09:44:40;96036.86;;;34.80;29.64
31873;BME280;22407;42.820;23.374;2022-07-03T09:47:15;96037.69;;;34.86;28.62
31873;BME280;22407;42.820;23.374;2022-07-03T09:52:33;96036.56;;;34.92;27.63
31873;BME280;22407;42.820;23.374;2022-07-03T09:57:45;96031.39;;;34.67;27.92
31873;BME280;22407;42.820;23.374;2022-07-03T10:00:19;96027.85;;;33.90;29.31
31873;BME280;22407;42.820;23.374;2022-07-03T10:05:30;96021.16;;;33.35;30.22
31873;BME280;22407;42.820;23.374;2022-07-03T10:08:02;96022.61;;;33.60;31.16
31873;BME280;22407;42.820;23.374;2022-07-03T10:10:40;96017.86;;;33.38;31.05
31873;BME280;22407;42.820;23.374;2022-07-03T10:13:04;96019.47;;;33.18;31.33
31873;BME280;22407;42.820;23.374;2022-07-03T10:15:34;96020.73;;;32.95;31.22
31873;BME280;22407;42.820;23.374;2022-07-03T10:18:07;96011.97;;;33.03;31.26
31873;BME280;22407;42.820;23.374;2022-07-03T10:20:40;96018.70;;;32.73;31.63
31873;BME280;22407;42.820;23.374;2022-07-03T10:23:09;96010.59;;;33.03;31.88
31873;BME280;22407;42.820;23.374;2022-07-03T10:25:46;96000.89;;;33.77;30.26
31873;BME280;22407;42.820;23.374;2022-07-03T10:28:13;95998.30;;;34.70;29.23
31873;BME280;22407;42.820;23.374;2022-07-03T10:30:44;96000.63;;;35.60;28.37
31873;BME280;22407;42.820;23.374;2022-07-03T10:33:13;95998.64;;;35.73;27.09
31873;BME280;22407;42.820;23.374;2022-07-03T10:35:49;95988.48;;;35.61;27.12
31873;BME280;22407;42.820;23.374;2022-07-03T10:41:12;95974.17;;;36.27;27.02
31873;BME280;22407;42.820;23.374;2022-07-03T10:43:58;95981.80;;;36.04;26.23
31873;BME280;22407;42.820;23.374;2022-07-03T10:46:45;95972.60;;;36.16;26.21
31873;BME280;22407;42.820;23.374;2022-07-03T10:49:15;95974.67;;;35.68;26.30
31873;BME280;22407;42.820;23.374;2022-07-03T10:52:04;95976.05;;;35.13;26.90
31873;BME280;22407;42.820;23.374;2022-07-03T10:54:35;95973.20;;;34.79;27.42
31873;BME280;22407;42.820;23.374;2022-07-03T10:57:12;95973.94;;;34.95;27.43
31873;BME280;22407;42.820;23.374;2022-07-03T10:59:55;95974.22;;;35.48;26.88
31873;BME280;22407;42.820;23.374;2022-07-03T11:02:38;95960.52;;;36.07;26.39
31873;BME280;22407;42.820;23.374;2022-07-03T11:05:09;95960.42;;;35.88;25.55
31873;BME280;22407;42.820;23.374;2022-07-03T11:18:17;95945.02;;;36.64;24.63
31873;BME280;22407;42.820;23.374;2022-07-03T11:23:30;95939.98;;;36.18;25.91
31873;BME280;22407;42.820;23.374;2022-07-03T11:36:33;95932.01;;;35.45;26.82
31873;BME280;22407;42.820;23.374;2022-07-03T11:39:14;95930.13;;;35.43;26.67
31873;BME280;22407;42.820;23.374;2022-07-03T11:44:10;95922.45;;;35.35;26.69
31873;BME280;22407;42.820;23.374;2022-07-03T11:46:40;95911.48;;;35.59;25.83
31873;BME280;22407;42.820;23.374;2022-07-03T11:49:10;95916.61;;;35.76;25.51
31873;BME280;22407;42.820;23.374;2022-07-03T11:51:42;95913.95;;;35.95;25.23
31873;BME280;22407;42.820;23.374;2022-07-03T11:54:11;95907.04;;;35.66;26.28
31873;BME280;22407;42.820;23.374;2022-07-03T11:56:41;95898.91;;;36.09;25.38
31873;BME280;22407;42.820;23.374;2022-07-03T11:59:10;95897.27;;;36.56;25.04
31873;BME280;22407;42.820;23.374;2022-07-03T12:01:39;95890.26;;;36.18;25.91
31873;BME280;22407;42.820;23.374;2022-07-03T12:04:21;95894.45;;;36.40;25.42
31873;BME280;22407;42.820;23.374;2022-07-03T12:06:53;95883.21;;;36.77;25.15
31873;BME280;22407;42.820;23.374;2022-07-03T12:09:30;95890.31;;;36.61;25.36
31873;BME280;22407;42.820;23.374;2022-07-03T12:12:14;95880.89;;;36.41;25.41
31873;BME280;22407;42.820;23.374;2022-07-03T12:14:49;95878.50;;;36.77;25.28
31873;BME280;22407;42.820;23.374;2022-07-03T12:17:20;95878.90;;;37.46;24.19
31873;BME280;22407;42.820;23.374;2022-07-03T12:19:57;95869.09;;;37.35;24.99
31873;BME280;22407;42.820;23.374;2022-07-03T12:22:31;95871.52;;;36.15;26.37
31873;BME280;22407;42.820;23.374;2022-07-03T12:25:03;95862.71;;;36.10;26.67
31873;BME280;22407;42.820;23.374;2022-07-03T12:27:34;95860.52;;;36.07;26.55
31873;BME280;22407;42.820;23.374;2022-07-03T12:30:04;95859.75;;;36.50;26.77
31873;BME280;22407;42.820;23.374;2022-07-03T12:32:34;95860.84;;;36.95;25.40
31873;BME280;22407;42.820;23.374;2022-07-03T12:35:04;95866.15;;;36.91;25.89
31873;BME280;22407;42.820;23.374;2022-07-03T12:37:37;95855.13;;;36.45;26.53
31873;BME280;22407;42.820;23.374;2022-07-03T12:40:10;95857.32;;;35.71;27.82
31873;BME280;22407;42.820;23.374;2022-07-03T12:42:46;95865.89;;;34.90;28.63
31873;BME280;22407;42.820;23.374;2022-07-03T12:45:25;95870.16;;;34.67;29.24
31873;BME280;22407;42.820;23.374;2022-07-03T12:47:58;95873.73;;;34.68;29.01
31873;BME280;22407;42.820;23.374;2022-07-03T12:50:44;95865.95;;;34.83;28.17
31873;BME280;22407;42.820;23.374;2022-07-03T12:53:27;95870.83;;;34.36;29.14
31873;BME280;22407;42.820;23.374;2022-07-03T12:56:08;95872.80;;;34.25;29.58
31873;BME280;22407;42.820;23.374;2022-07-03T12:58:39;95881.11;;;34.13;29.89
31873;BME280;22407;42.820;23.374;2022-07-03T13:01:32;95872.88;;;33.89;29.53
31873;BME280;22407;42.820;23.374;2022-07-03T13:04:08;95867.39;;;33.79;30.10
31873;BME280;22407;42.820;23.374;2022-07-03T13:06:38;95877.25;;;33.98;30.41
31873;BME280;22407;42.820;23.374;2022-07-03T13:09:07;95878.13;;;33.81;30.73
31873;BME280;22407;42.820;23.374;2022-07-03T13:11:39;95876.21;;;33.53;31.69
31873;BME280;22407;42.820;23.374;2022-07-03T13:14:10;95877.56;;;33.27;33.13
31873;BME280;22407;42.820;23.374;2022-07-03T13:16:44;95874.22;;;33.00;34.04
31873;BME280;22407;42.820;23.374;2022-07-03T13:19:15;95875.41;;;32.41;34.60
31873;BME280;22407;42.820;23.374;2022-07-03T13:21:45;95880.81;;;32.23;35.38
31873;BME280;22407;42.820;23.374;2022-07-03T13:24:15;95880.05;;;31.87;36.21
31873;BME280;22407;42.820;23.374;2022-07-03T13:26:45;95879.41;;;31.73;36.53
31873;BME280;22407;42.820;23.374;2022-07-03T13:29:15;95876.17;;;32.26;35.96
31873;BME280;22407;42.820;23.374;2022-07-03T13:31:44;95881.64;;;33.04;35.01
31873;BME280;22407;42.820;23.374;2022-07-03T13:34:14;95876.75;;;33.11;34.13
31873;BME280;22407;42.820;23.374;2022-07-03T13:36:43;95872.38;;;32.40;34.42
31873;BME280;22407;42.820;23.374;2022-07-03T13:39:11;95873.73;;;31.87;34.90
31873;BME280;22407;42.820;23.374;2022-07-03T13:41:40;95871.95;;;31.63;35.28
31873;BME280;22407;42.820;23.374;2022-07-03T13:44:09;95870.60;;;31.68;35.72
31873;BME280;22407;42.820;23.374;2022-07-03T13:46:38;95867.55;;;31.62;35.91
31873;BME280;22407;42.820;23.374;2022-07-03T13:49:07;95872.77;;;31.63;36.01
31873;BME280;22407;42.820;23.374;2022-07-03T13:51:36;95870.27;;;31.57;35.75
31873;BME280;22407;42.820;23.374;2022-07-03T13:54:05;95865.42;;;31.39;35.81
31873;BME280;22407;42.820;23.374;2022-07-03T13:56:34;95858.67;;;31.49;36.38
31873;BME280;22407;42.820;23.374;2022-07-03T13:59:02;95855.44;;;31.58;35.77
31873;BME280;22407;42.820;23.374;2022-07-03T14:01:31;95852.36;;;31.46;36.04
31873;BME280;22407;42.820;23.374;2022-07-03T14:04:00;95850.18;;;31.48;35.88
31873;BME280;22407;42.820;23.374;2022-07-03T14:06:29;95848.64;;;31.33;36.29
31873;BME280;22407;42.820;23.374;2022-07-03T14:08:58;95844.12;;;31.46;35.70
31873;BME280;22407;42.820;23.374;2022-07-03T14:11:27;95839.94;;;31.41;36.34
31873;BME280;22407;42.820;23.374;2022-07-03T14:13:56;95844.85;;;31.39;36.40
31873;BME280;22407;42.820;23.374;2022-07-03T14:16:25;95841.05;;;31.43;36.13
31873;BME280;22407;42.820;23.374;2022-07-03T14:18:53;95841.77;;;31.28;36.15
31873;BME280;22407;42.820;23.374;2022-07-03T14:21:22;95844.16;;;31.17;36.24
31873;BME280;22407;42.820;23.374;2022-07-03T14:23:51;95848.91;;;30.99;36.63